createdAt,value
2017-11-28T00:01:17.804Z,5.95
2017-11-28T00:03:46.948Z,5.87
2017-11-28T00:06:15.678Z,5.83
2017-11-28T00:08:44.039Z,5.80
2017-11-28T00:11:12.356Z,5.68
2017-11-28T00:13:41.105Z,5.70
2017-11-28T00:16:09.462Z,5.74
2017-11-28T00:18:38.595Z,5.82
2017-11-28T00:21:06.919Z,5.81
2017-11-28T00:23:35.350Z,5.82
2017-11-28T00:26:04.821Z,5.75
2017-11-28T00:28:33.192Z,5.80
2017-11-28T00:31:02.685Z,5.91
2017-11-28T00:33:31.022Z,5.88
2017-11-28T00:35:59.815Z,5.83
2017-11-28T00:38:28.538Z,5.93
2017-11-28T00:40:57.249Z,6.02
2017-11-28T00:43:26.009Z,5.93
2017-11-28T00:45:54.333Z,5.94
2017-11-28T00:48:22.685Z,5.94
2017-11-28T00:50:51.017Z,5.98
2017-11-28T00:53:20.134Z,6.00
2017-11-28T00:55:48.450Z,6.01
2017-11-28T00:58:17.250Z,6.07
2017-11-28T01:00:45.613Z,6.07
2017-11-28T01:03:13.934Z,6.07
2017-11-28T01:05:42.281Z,6.05
2017-11-28T01:08:10.605Z,6.14
2017-11-28T01:10:38.989Z,6.11
2017-11-28T01:13:08.097Z,6.08
2017-11-28T01:15:37.202Z,6.12
2017-11-28T01:18:05.517Z,6.11
2017-11-28T01:20:34.269Z,6.06
2017-11-28T01:23:02.635Z,6.09
2017-11-28T01:25:31.726Z,6.10
2017-11-28T01:28:00.107Z,6.06
2017-11-28T01:30:29.234Z,6.04
2017-11-28T01:32:57.582Z,5.97
2017-11-28T01:35:26.697Z,5.93
2017-11-28T01:37:55.092Z,5.92
2017-11-28T01:40:23.437Z,5.92
2017-11-28T01:42:52.528Z,5.95
2017-11-28T01:45:21.288Z,5.84
2017-11-28T01:47:49.616Z,5.78
2017-11-28T01:50:19.089Z,5.74
2017-11-28T01:52:48.177Z,5.72
2017-11-28T01:55:16.553Z,5.66
2017-11-28T01:57:45.660Z,5.67
2017-11-28T02:00:14.787Z,5.72
2017-11-28T02:02:43.144Z,5.71
2017-11-28T02:05:11.500Z,5.74
2017-11-28T02:07:39.809Z,5.70
2017-11-28T02:10:08.165Z,5.67
2017-11-28T02:12:37.257Z,5.67
2017-11-28T02:15:06.391Z,5.71
2017-11-28T02:17:34.768Z,5.71
2017-11-28T02:20:03.070Z,5.75
2017-11-28T02:22:31.391Z,5.80
2017-11-28T02:25:00.700Z,5.84
2017-11-28T02:27:29.780Z,5.90
2017-11-28T02:29:58.528Z,5.91
2017-11-28T02:32:27.669Z,5.84
2017-11-28T02:34:56.783Z,5.83
2017-11-28T02:37:25.135Z,5.77
2017-11-28T02:39:54.332Z,5.76
2017-11-28T02:42:22.681Z,5.71
2017-11-28T02:44:51.004Z,5.67
2017-11-28T02:47:19.340Z,5.70
2017-11-28T02:49:59.461Z,5.77
2017-11-28T02:52:28.970Z,5.80
2017-11-28T02:55:14.763Z,5.79
2017-11-28T02:57:43.116Z,5.81
2017-11-28T03:00:11.484Z,5.81
2017-11-28T03:02:40.579Z,5.87
2017-11-28T03:05:08.909Z,5.89
2017-11-28T03:07:38.840Z,5.89
2017-11-28T03:10:48.623Z,5.92
2017-11-28T03:13:19.555Z,5.89
2017-11-28T03:15:55.388Z,5.95
2017-11-28T03:18:27.540Z,5.95
2017-11-28T03:21:05.148Z,5.97
2017-11-28T03:26:54.522Z,6.07
2017-11-28T03:29:27.262Z,6.09
2017-11-28T03:31:56.553Z,6.14
2017-11-28T03:34:24.908Z,6.17
2017-11-28T03:36:53.989Z,6.17
2017-11-28T03:39:23.104Z,6.22
2017-11-28T03:41:51.412Z,6.19
2017-11-28T03:47:26.872Z,6.12
2017-11-28T03:49:55.952Z,6.17
2017-11-28T03:52:24.303Z,6.18
2017-11-28T03:54:53.432Z,6.23
2017-11-28T03:57:21.747Z,6.32
2017-11-28T03:59:50.071Z,6.27
2017-11-28T04:02:18.448Z,6.27
2017-11-28T04:04:46.809Z,6.29
2017-11-28T04:07:15.886Z,6.29
2017-11-28T04:09:44.252Z,6.35
2017-11-28T04:12:12.622Z,6.25
2017-11-28T04:14:41.008Z,6.24
2017-11-28T04:17:09.315Z,6.25
2017-11-28T04:19:38.447Z,6.22
2017-11-28T04:22:07.167Z,6.24
2017-11-28T04:24:37.042Z,6.18
2017-11-28T04:27:05.763Z,6.10
2017-11-28T04:29:34.479Z,6.07
2017-11-28T04:32:02.829Z,6.04
2017-11-28T04:34:31.144Z,6.00
2017-11-28T04:37:00.264Z,5.88
2017-11-28T04:39:28.598Z,5.81
2017-11-28T04:41:56.916Z,5.74
2017-11-28T04:44:25.255Z,5.66
2017-11-28T04:46:55.067Z,5.66
2017-11-28T04:49:23.447Z,5.73
2017-11-28T04:51:52.544Z,5.88
2017-11-28T04:54:21.655Z,6.01
2017-11-28T04:56:50.025Z,6.14
2017-11-28T04:59:19.149Z,6.24
2017-11-28T05:01:47.507Z,6.26
2017-11-28T05:04:16.576Z,6.34
2017-11-28T05:06:46.280Z,6.37
2017-11-28T05:09:14.644Z,6.34
2017-11-28T05:11:43.029Z,6.36
2017-11-28T05:14:11.347Z,6.37
2017-11-28T05:16:39.739Z,6.38
2017-11-28T05:19:08.072Z,6.38
2017-11-28T05:21:36.424Z,6.42
2017-11-28T05:24:17.826Z,6.45
2017-11-28T05:26:46.179Z,6.48
2017-11-28T05:29:14.575Z,6.57
2017-11-28T05:32:00.868Z,6.55
2017-11-28T05:34:30.007Z,6.60
2017-11-28T05:36:58.373Z,6.58
2017-11-28T05:39:27.528Z,6.71
2017-11-28T05:41:55.949Z,6.73
2017-11-28T05:44:24.258Z,6.76
2017-11-28T05:46:53.327Z,6.78
2017-11-28T05:49:21.770Z,6.82
2017-11-28T05:51:50.103Z,6.87
2017-11-28T05:54:19.231Z,6.89
2017-11-28T05:56:47.598Z,6.92
2017-11-28T05:59:15.947Z,6.97
2017-11-28T06:01:44.260Z,7.00
2017-11-28T06:04:12.633Z,7.02
2017-11-28T06:06:40.954Z,7.03
2017-11-28T06:09:10.658Z,7.09
2017-11-28T06:11:38.966Z,7.18
2017-11-28T06:14:08.078Z,7.12
2017-11-28T06:16:36.426Z,7.00
2017-11-28T06:19:05.570Z,6.94
2017-11-28T06:21:33.930Z,6.91
2017-11-28T06:24:03.071Z,6.92
2017-11-28T06:26:31.399Z,6.91
2017-11-28T06:28:59.732Z,6.87
2017-11-28T06:31:28.497Z,6.80
2017-11-28T06:33:58.190Z,6.74
2017-11-28T06:36:26.538Z,6.73
2017-11-28T06:38:54.878Z,6.74
2017-11-28T06:41:23.647Z,6.72
2017-11-28T06:43:51.963Z,6.69
2017-11-28T06:46:21.426Z,6.67
2017-11-28T06:48:49.772Z,6.64
2017-11-28T06:51:18.130Z,6.59
2017-11-28T06:53:47.219Z,6.65
2017-11-28T06:56:16.364Z,6.64
2017-11-28T06:58:44.723Z,6.57
2017-11-28T07:01:13.034Z,6.66
2017-11-28T07:03:41.379Z,6.74
2017-11-28T07:06:10.136Z,6.68
2017-11-28T07:08:38.880Z,6.64
2017-11-28T07:11:07.190Z,6.68
2017-11-28T07:13:36.338Z,6.76
2017-11-28T07:16:04.654Z,6.82
2017-11-28T07:18:33.392Z,6.86
2017-11-28T07:21:01.732Z,6.85
2017-11-28T07:23:30.810Z,6.88
2017-11-28T07:25:59.178Z,6.83
2017-11-28T07:28:27.516Z,6.74
2017-11-28T07:30:56.621Z,6.78
2017-11-28T07:33:24.978Z,6.80
2017-11-28T07:35:54.110Z,6.80
2017-11-28T07:38:22.830Z,6.82
2017-11-28T07:40:51.906Z,6.87
2017-11-28T07:43:21.758Z,6.96
2017-11-28T07:45:50.066Z,7.07
2017-11-28T07:48:19.694Z,6.96
2017-11-28T07:50:48.041Z,6.98
2017-11-28T07:53:16.362Z,7.06
2017-11-28T07:55:45.474Z,7.10
2017-11-28T07:58:14.202Z,6.99
2017-11-28T08:00:42.541Z,7.19
2017-11-28T08:03:11.313Z,7.33
2017-11-28T08:05:39.643Z,7.43
2017-11-28T08:08:08.002Z,7.41
2017-11-28T08:10:37.854Z,7.40
2017-11-28T08:13:06.210Z,7.51
2017-11-28T08:15:34.921Z,7.57
2017-11-28T08:18:03.254Z,7.46
2017-11-28T08:20:32.361Z,7.59
2017-11-28T08:23:00.690Z,7.57
2017-11-28T08:25:29.041Z,7.45
2017-11-28T08:27:57.371Z,7.41
2017-11-28T08:30:26.105Z,7.49
2017-11-28T08:32:54.463Z,7.42
2017-11-28T08:35:22.794Z,7.24
2017-11-28T08:37:51.125Z,7.26
2017-11-28T08:40:19.505Z,7.31
2017-11-28T08:42:47.826Z,7.11
2017-11-28T08:45:16.180Z,6.96
2017-11-28T08:47:44.494Z,6.98
2017-11-28T08:50:12.859Z,7.01
2017-11-28T08:52:42.009Z,7.09
2017-11-28T08:55:10.361Z,6.81
2017-11-28T08:57:38.733Z,6.86
2017-11-28T09:00:07.911Z,6.80
2017-11-28T09:02:37.024Z,6.83
2017-11-28T09:05:05.338Z,6.89
2017-11-28T09:07:33.685Z,6.73
2017-11-28T09:10:02.012Z,6.87
2017-11-28T09:12:30.333Z,6.88
2017-11-28T09:14:59.841Z,7.00
2017-11-28T09:17:28.150Z,7.04
2017-11-28T09:19:56.517Z,6.90
2017-11-28T09:22:25.965Z,7.11
2017-11-28T09:24:55.801Z,7.01
2017-11-28T09:27:24.923Z,6.85
2017-11-28T09:29:53.273Z,7.09
2017-11-28T09:32:22.009Z,6.92
2017-11-28T09:34:50.356Z,6.93
2017-11-28T09:37:18.669Z,7.07
2017-11-28T09:39:47.035Z,7.14
2017-11-28T09:42:15.369Z,7.10
2017-11-28T09:44:44.457Z,7.35
2017-11-28T09:47:13.517Z,7.34
2017-11-28T09:49:41.870Z,7.47
2017-11-28T09:52:11.325Z,7.45
2017-11-28T09:54:40.434Z,7.50
2017-11-28T09:57:08.785Z,7.66
2017-11-28T09:59:37.133Z,7.67
2017-11-28T10:02:05.457Z,7.85
2017-11-28T10:04:34.584Z,7.74
2017-11-28T10:07:02.890Z,7.58
2017-11-28T10:09:31.232Z,7.15
2017-11-28T10:11:59.544Z,7.13
2017-11-28T10:14:27.909Z,7.57
2017-11-28T10:16:56.265Z,7.83
2017-11-28T10:19:24.578Z,8.01
2017-11-28T10:21:52.953Z,7.98
2017-11-28T10:24:22.023Z,7.61
2017-11-28T10:26:50.370Z,7.47
2017-11-28T10:29:19.450Z,7.37
2017-11-28T10:31:47.777Z,7.36
2017-11-28T10:34:16.100Z,7.08
2017-11-28T10:36:44.447Z,7.12
2017-11-28T10:39:13.521Z,7.37
2017-11-28T10:41:41.869Z,7.20
2017-11-28T10:44:10.964Z,6.92
2017-11-28T10:46:40.073Z,6.81
2017-11-28T10:49:08.840Z,6.84
2017-11-28T10:51:37.204Z,6.72
2017-11-28T10:54:06.276Z,6.78
2017-11-28T10:56:34.595Z,6.87
2017-11-28T10:59:03.743Z,6.91
2017-11-28T11:01:32.046Z,6.78
2017-11-28T11:04:00.393Z,6.70
2017-11-28T11:06:28.702Z,6.64
2017-11-28T11:08:57.050Z,6.78
2017-11-28T11:11:26.129Z,6.83
2017-11-28T11:13:54.845Z,6.84
2017-11-28T11:16:23.233Z,6.96
2017-11-28T11:18:51.560Z,7.07
2017-11-28T11:21:20.304Z,7.09
2017-11-28T11:23:48.612Z,7.03
2017-11-28T11:26:17.348Z,7.17
2017-11-28T11:28:45.733Z,7.29
2017-11-28T11:31:14.053Z,7.46
2017-11-28T11:33:42.368Z,7.24
2017-11-28T11:36:11.109Z,7.33
2017-11-28T11:38:40.192Z,7.22
2017-11-28T11:41:09.337Z,7.16
2017-11-28T11:43:37.648Z,7.09
2017-11-28T11:46:05.964Z,7.30
2017-11-28T11:48:34.321Z,7.23
2017-11-28T11:51:03.441Z,7.20
2017-11-28T11:53:31.753Z,7.30
2017-11-28T11:56:00.092Z,7.49
2017-11-28T11:58:28.428Z,7.69
2017-11-28T12:00:56.765Z,7.36
2017-11-28T12:03:25.128Z,7.24
2017-11-28T12:05:53.437Z,7.44
2017-11-28T12:08:21.787Z,7.62
2017-11-28T12:10:50.123Z,7.52
2017-11-28T12:13:18.468Z,7.50
2017-11-28T12:15:46.781Z,7.46
2017-11-28T12:18:15.120Z,7.57
2017-11-28T12:20:43.500Z,7.85
2017-11-28T12:23:11.796Z,7.96
2017-11-28T12:25:40.140Z,8.05
2017-11-28T12:28:08.462Z,7.78
2017-11-28T12:30:36.832Z,7.96
2017-11-28T12:33:05.564Z,7.97
2017-11-28T12:35:33.877Z,7.41
2017-11-28T12:38:03.556Z,7.47
2017-11-28T12:40:31.844Z,7.23
2017-11-28T12:43:00.201Z,7.48
2017-11-28T12:45:28.508Z,7.37
2017-11-28T12:47:57.265Z,7.61
2017-11-28T12:50:25.615Z,7.66
2017-11-28T12:52:54.716Z,7.65
2017-11-28T12:55:23.841Z,7.73
2017-11-28T12:57:52.185Z,7.73
2017-11-28T13:00:21.294Z,7.56
2017-11-28T13:02:50.003Z,7.34
2017-11-28T13:05:18.328Z,7.07
2017-11-28T13:07:47.108Z,7.31
2017-11-28T13:10:15.424Z,7.12
2017-11-28T13:12:44.515Z,7.34
2017-11-28T13:15:13.631Z,7.41
2017-11-28T13:17:43.459Z,7.48
2017-11-28T13:20:14.243Z,7.34
2017-11-28T13:22:43.391Z,7.30
2017-11-28T13:25:12.112Z,7.33
2017-11-28T13:27:40.461Z,7.14
2017-11-28T13:30:08.819Z,7.13
2017-11-28T13:32:37.163Z,7.27
2017-11-28T13:35:05.716Z,6.97
2017-11-28T13:37:35.244Z,6.96
2017-11-28T13:40:04.328Z,7.09
2017-11-28T13:42:32.668Z,6.92
2017-11-28T13:45:02.131Z,6.83
2017-11-28T13:47:31.235Z,6.80
2017-11-28T13:50:00.354Z,6.77
2017-11-28T13:52:28.722Z,6.78
2017-11-28T13:54:58.659Z,6.75
2017-11-28T13:57:26.987Z,6.44
2017-11-28T13:59:56.078Z,6.43
2017-11-28T14:02:24.431Z,6.44
2017-11-28T14:04:52.739Z,6.21
2017-11-28T14:07:21.119Z,6.29
2017-11-28T14:09:49.504Z,6.44
2017-11-28T14:12:18.599Z,6.53
2017-11-28T14:14:47.359Z,6.63
2017-11-28T14:17:16.194Z,6.56
2017-11-28T14:22:54.778Z,6.62
2017-11-28T14:25:27.359Z,6.46
2017-11-28T14:28:15.348Z,6.38
2017-11-28T14:33:56.663Z,6.31
2017-11-28T14:39:32.319Z,6.44
2017-11-28T14:45:11.550Z,6.20
2017-11-28T14:47:40.670Z,6.15
2017-11-28T14:50:09.004Z,6.01
2017-11-28T14:52:37.754Z,5.83
2017-11-28T14:55:11.635Z,5.69
2017-11-28T14:57:46.938Z,5.51
2017-11-28T15:00:21.728Z,5.33
2017-11-28T15:02:56.242Z,5.09
2017-11-28T15:08:50.894Z,4.78
2017-11-28T15:11:24.774Z,4.68
2017-11-28T15:13:58.510Z,4.55
2017-11-28T15:16:34.090Z,4.51
2017-11-28T15:19:08.602Z,4.45
2017-11-28T15:24:51.000Z,4.12
2017-11-28T15:27:19.771Z,4.07
2017-11-28T15:29:48.090Z,3.94
2017-11-28T15:32:17.188Z,3.94
2017-11-28T15:34:47.098Z,3.92
2017-11-28T15:37:16.242Z,3.82
2017-11-28T15:39:44.603Z,3.77
2017-11-28T15:42:12.914Z,3.84
2017-11-28T15:44:41.284Z,3.78
2017-11-28T15:47:11.122Z,3.72
2017-11-28T15:49:40.232Z,3.74
2017-11-28T15:52:08.616Z,3.76
2017-11-28T15:54:36.930Z,3.72
2017-11-28T15:57:05.270Z,3.70
2017-11-28T15:59:33.990Z,3.67
2017-11-28T16:02:02.741Z,3.60
2017-11-28T16:04:31.880Z,3.56
2017-11-28T16:07:01.028Z,3.47
2017-11-28T16:09:29.746Z,3.42
2017-11-28T16:11:59.265Z,3.48
2017-11-28T16:14:27.637Z,3.39
2017-11-28T16:16:55.951Z,3.36
2017-11-28T16:19:24.478Z,3.33
2017-11-28T16:21:52.826Z,3.35
2017-11-28T16:24:21.974Z,3.43
2017-11-28T16:26:50.766Z,3.34
2017-11-28T16:29:19.086Z,3.26
2017-11-28T16:31:48.258Z,3.30
2017-11-28T16:34:16.618Z,3.36
2017-11-28T16:36:46.124Z,3.51
2017-11-28T16:39:14.487Z,3.61
2017-11-28T16:41:42.830Z,3.76
2017-11-28T16:44:11.935Z,3.86
2017-11-28T16:46:41.079Z,3.97
2017-11-28T16:49:09.412Z,4.06
2017-11-28T16:51:37.778Z,4.16
2017-11-28T16:54:06.900Z,4.27
2017-11-28T16:56:35.462Z,4.33
2017-11-28T16:59:05.349Z,4.38
2017-11-28T17:01:34.086Z,4.42
2017-11-28T17:04:02.457Z,4.37
2017-11-28T17:06:30.783Z,4.39
2017-11-28T17:08:59.119Z,4.38
2017-11-28T17:11:27.906Z,4.33
2017-11-28T17:13:56.266Z,4.29
2017-11-28T17:16:25.518Z,4.22
2017-11-28T17:18:53.936Z,4.10
2017-11-28T17:21:22.661Z,4.05
2017-11-28T17:23:51.014Z,3.94
2017-11-28T17:26:19.785Z,4.02
2017-11-28T17:28:48.138Z,3.95
2017-11-28T17:31:16.529Z,3.88
2017-11-28T17:33:45.270Z,3.78
2017-11-28T17:36:14.032Z,3.67
2017-11-28T17:38:43.166Z,3.56
2017-11-28T17:41:12.286Z,3.51
2017-11-28T17:43:41.432Z,3.46
2017-11-28T17:46:09.790Z,3.38
2017-11-28T17:48:38.190Z,3.34
2017-11-28T17:51:06.526Z,3.26
2017-11-28T17:53:34.899Z,3.18
2017-11-28T17:56:03.653Z,3.14
2017-11-28T17:58:32.021Z,3.06
2017-11-28T18:01:00.373Z,2.97
2017-11-28T18:03:28.786Z,2.89
2017-11-28T18:05:57.154Z,2.92
2017-11-28T18:08:25.517Z,2.85
2017-11-28T18:10:53.889Z,2.89
2017-11-28T18:13:22.218Z,2.88
2017-11-28T18:15:50.998Z,2.87
2017-11-28T18:18:19.335Z,2.83
2017-11-28T18:20:47.669Z,2.82
2017-11-28T18:23:17.025Z,2.83
2017-11-28T18:25:45.439Z,2.90
2017-11-28T18:28:14.558Z,2.95
2017-11-28T18:30:43.753Z,3.04
2017-11-28T18:33:12.882Z,3.11
2017-11-28T18:35:42.375Z,3.22
2017-11-28T18:38:10.717Z,3.18
2017-11-28T18:40:39.046Z,3.14
2017-11-28T18:43:07.407Z,3.12
2017-11-28T18:45:36.137Z,3.17
2017-11-28T18:48:04.581Z,3.19
2017-11-28T18:50:32.986Z,3.21
2017-11-28T18:53:01.393Z,3.20
2017-11-28T18:55:30.517Z,3.20
2017-11-28T18:57:59.656Z,3.20
2017-11-28T19:00:33.013Z,3.21
2017-11-28T19:03:02.169Z,3.23
2017-11-28T19:05:30.553Z,3.21
2017-11-28T19:08:00.126Z,3.22
2017-11-28T19:10:28.556Z,3.19
2017-11-28T19:12:57.696Z,3.21
2017-11-28T19:15:26.032Z,3.27
2017-11-28T19:17:55.344Z,3.41
2017-11-28T19:20:24.477Z,3.51
2017-11-28T19:22:52.841Z,3.53
2017-11-28T19:25:21.204Z,3.52
2017-11-28T19:27:50.321Z,3.50
2017-11-28T19:30:18.761Z,3.34
2017-11-28T19:32:47.157Z,3.25
2017-11-28T19:35:15.505Z,3.16
2017-11-28T19:37:45.527Z,3.06
2017-11-28T19:40:14.668Z,3.04
2017-11-28T19:42:43.057Z,2.95
2017-11-28T19:45:11.476Z,2.88
2017-11-28T19:47:40.623Z,2.83
2017-11-28T19:50:10.393Z,2.82
2017-11-28T19:52:38.749Z,2.80
2017-11-28T19:55:07.217Z,2.60
2017-11-28T19:57:35.937Z,2.64
2017-11-28T20:00:04.644Z,2.58
2017-11-28T20:02:33.018Z,2.54
2017-11-28T20:05:01.392Z,2.56
2017-11-28T20:07:30.188Z,2.60
2017-11-28T20:09:58.591Z,2.70
2017-11-28T20:12:27.456Z,2.87
2017-11-28T20:14:56.617Z,3.05
2017-11-28T20:17:25.776Z,3.19
2017-11-28T20:19:55.060Z,3.35
2017-11-28T20:22:24.613Z,3.44
2017-11-28T20:24:53.435Z,3.59
2017-11-28T20:27:22.932Z,3.67
2017-11-28T20:29:52.763Z,3.74
2017-11-28T20:32:21.548Z,3.82
2017-11-28T20:34:50.388Z,3.89
2017-11-28T20:37:19.530Z,3.98
2017-11-28T20:39:48.232Z,4.02
2017-11-28T20:42:17.719Z,4.03
2017-11-28T20:44:46.167Z,4.03
2017-11-28T20:47:17.044Z,3.96
2017-11-28T20:49:46.223Z,3.93
2017-11-28T20:52:14.683Z,3.88
2017-11-28T20:54:43.048Z,3.81
2017-11-28T20:57:13.470Z,3.79
2017-11-28T20:59:41.817Z,3.78
2017-11-28T21:02:10.554Z,3.79
2017-11-28T21:04:39.671Z,3.78
2017-11-28T21:07:08.815Z,3.74
2017-11-28T21:09:37.484Z,3.62
2017-11-28T21:12:05.853Z,3.55
2017-11-28T21:14:34.975Z,3.52
2017-11-28T21:17:03.347Z,3.50
2017-11-28T21:19:32.466Z,3.51
2017-11-28T21:22:01.600Z,3.40
2017-11-28T21:24:31.221Z,3.30
2017-11-28T21:27:01.779Z,3.28
2017-11-28T21:29:31.929Z,3.29
2017-11-28T21:32:03.256Z,3.38
2017-11-28T21:34:32.470Z,3.41
2017-11-28T21:37:02.305Z,3.46
2017-11-28T21:39:31.053Z,3.51
2017-11-28T21:42:00.653Z,3.54
2017-11-28T21:44:29.876Z,3.57
2017-11-28T21:46:58.894Z,3.56
2017-11-28T21:49:27.307Z,3.49
2017-11-28T21:51:55.765Z,3.43
2017-11-28T21:54:24.104Z,3.32
2017-11-28T21:56:52.839Z,3.21
2017-11-28T21:59:22.253Z,3.05
2017-11-28T22:01:50.899Z,2.97
2017-11-28T22:04:19.271Z,2.89
2017-11-28T22:06:48.003Z,2.87
2017-11-28T22:09:16.408Z,2.70
2017-11-28T22:11:45.295Z,2.84
2017-11-28T22:14:13.980Z,2.84
2017-11-28T22:16:43.092Z,2.90
2017-11-28T22:19:12.239Z,2.97
2017-11-28T22:21:40.955Z,3.08
2017-11-28T22:24:10.803Z,3.23
2017-11-28T22:26:39.210Z,3.32
2017-11-28T22:29:08.405Z,3.41
2017-11-28T22:31:38.380Z,3.50
2017-11-28T22:34:07.866Z,3.58
2017-11-28T22:36:36.266Z,3.61
2017-11-28T22:39:06.476Z,3.66
2017-11-28T22:41:35.571Z,3.51
2017-11-28T22:44:04.279Z,3.62
2017-11-28T22:46:33.048Z,3.57
2017-11-28T22:49:01.943Z,3.54
2017-11-28T22:51:30.528Z,3.52
2017-11-28T22:54:00.031Z,3.52
2017-11-28T22:56:28.582Z,3.36
2017-11-28T22:58:57.097Z,3.43
2017-11-28T23:01:26.450Z,3.44
2017-11-28T23:03:54.917Z,3.39
2017-11-28T23:06:25.096Z,3.36
2017-11-28T23:08:53.814Z,3.38
2017-11-28T23:11:22.447Z,3.45
2017-11-28T23:14:01.614Z,3.53
2017-11-28T23:16:30.966Z,3.61
2017-11-28T23:19:00.214Z,3.74
2017-11-28T23:21:28.964Z,3.82
2017-11-28T23:23:57.410Z,3.87
2017-11-28T23:26:25.783Z,3.94
2017-11-28T23:28:54.098Z,4.03
2017-11-28T23:31:22.890Z,4.03
2017-11-28T23:33:51.302Z,4.05
2017-11-28T23:36:19.635Z,4.02
2017-11-28T23:38:47.994Z,3.99
2017-11-28T23:41:17.098Z,4.06
2017-11-28T23:43:45.515Z,4.06
2017-11-28T23:46:14.651Z,4.08
2017-11-28T23:48:43.359Z,4.05
2017-11-28T23:51:11.739Z,4.06
2017-11-28T23:53:40.103Z,4.09
2017-11-28T23:56:08.431Z,4.16
2017-11-28T23:58:37.194Z,4.18
